Time;durP1;ratioP1;P1;durP2;ratioP2;P2;SDS_P1;SDS_P2;PMS_P1;PMS_P2;Temp;Humidity;BMP_temperature;BMP_pressure;BME280_temperature;BME280_humidity;BME280_pressure;Samples;Min_cycle;Max_cycle;Signal;HPM_P1;HPM_P2
2021/09/27 00:02:21;;;;;;;9.98;8.23;;;;;;;16.44;56.58;101473.84;5004198;28;20061;-71
2021/09/27 00:04:47;;;;;;;9.20;8.13;;;;;;;16.38;56.48;101470.59;5018458;28;20030;-70
2021/09/27 00:07:12;;;;;;;11.13;7.43;;;;;;;16.42;56.27;101474.78;5005890;28;20420;-71
2021/09/27 00:09:38;;;;;;;9.90;7.72;;;;;;;16.42;56.64;101477.41;5006329;28;20400;-71
2021/09/27 00:12:07;;;;;;;8.90;8.00;;;;;;;16.38;56.41;101475.88;4992559;28;20033;-70
2021/09/27 00:14:33;;;;;;;10.57;8.88;;;;;;;16.35;56.40;101473.44;5020957;28;20038;-71
2021/09/27 00:16:58;;;;;;;9.75;8.13;;;;;;;16.35;56.26;101476.06;5008631;28;20030;-71
2021/09/27 00:19:24;;;;;;;12.25;7.82;;;;;;;16.31;56.65;101474.53;5023420;28;20654;-71
2021/09/27 00:21:52;;;;;;;13.30;9.40;;;;;;;16.29;56.69;101476.41;5007462;28;20084;-71
2021/09/27 00:24:19;;;;;;;10.35;8.25;;;;;;;16.30;56.74;101482.50;5007188;28;20118;-72
2021/09/27 00:26:46;;;;;;;9.70;8.07;;;;;;;16.28;56.74;101464.13;5007306;28;20029;-70
2021/09/27 00:29:12;;;;;;;8.07;7.25;;;;;;;16.26;56.85;101467.78;5008162;28;20046;-70
2021/09/27 00:31:38;;;;;;;10.32;8.07;;;;;;;16.21;56.65;101466.25;5024143;28;20036;-70
2021/09/27 00:34:04;;;;;;;12.73;9.18;;;;;;;16.19;56.77;101470.75;5006745;28;20034;-69
2021/09/27 00:36:29;;;;;;;15.63;10.05;;;;;;;16.17;56.68;101467.34;5008031;28;20065;-70
2021/09/27 00:38:56;;;;;;;13.77;10.68;;;;;;;16.15;56.82;101465.72;5004565;28;20132;-70
2021/09/27 00:41:22;;;;;;;14.18;9.98;;;;;;;16.13;56.81;101462.31;4986951;28;20041;-70
2021/09/27 00:43:50;;;;;;;14.32;10.23;;;;;;;16.10;56.73;101465.13;5008501;28;20038;-70
2021/09/27 00:46:20;;;;;;;17.33;13.18;;;;;;;16.03;57.06;101458.50;5007329;28;20507;-71
2021/09/27 00:48:46;;;;;;;15.88;12.98;;;;;;;15.99;57.22;101466.56;5009384;28;20399;-70
2021/09/27 00:51:19;;;;;;;21.40;14.32;;;;;;;15.96;57.30;101453.50;5007327;28;20096;-70
2021/09/27 00:53:53;;;;;;;18.55;14.40;;;;;;;15.88;57.37;101460.97;5007279;28;20034;-70
2021/09/27 00:56:23;;;;;;;17.98;13.32;;;;;;;15.86;57.39;101477.81;5005224;28;20046;-71
2021/09/27 00:58:50;;;;;;;15.63;12.20;;;;;;;15.86;57.63;101476.00;5024769;28;20037;-70
2021/09/27 01:01:18;;;;;;;21.55;14.60;;;;;;;15.89;57.62;101469.75;5007456;28;20128;-71
2021/09/27 01:03:44;;;;;;;19.90;13.88;;;;;;;15.88;57.82;101471.50;5007776;28;20034;-70
2021/09/27 01:06:43;;;;;;;22.77;14.75;;;;;;;15.92;57.64;101473.06;5007208;28;20032;-71
2021/09/27 01:09:23;;;;;;;17.92;13.93;;;;;;;15.93;57.92;101461.59;5002146;28;20647;-70
2021/09/27 01:12:08;;;;;;;26.63;16.58;;;;;;;15.89;57.96;101460.06;5006548;28;20067;-70
2021/09/27 01:15:11;;;;;;;21.33;16.30;;;;;;;15.90;57.86;101456.47;5008664;28;20042;-70
2021/09/27 01:17:58;;;;;;;22.80;15.70;;;;;;;15.87;57.72;101453.16;5006752;28;20059;-70
2021/09/27 01:20:42;;;;;;;24.38;16.65;;;;;;;15.85;57.76;101450.59;5000299;28;20069;-71
2021/09/27 01:23:39;;;;;;;22.65;16.33;;;;;;;15.82;57.58;101448.13;5008320;28;20029;-71
2021/09/27 01:26:19;;;;;;;19.88;16.75;;;;;;;15.80;57.49;101450.00;5000346;28;20029;-70
2021/09/27 01:29:06;;;;;;;17.30;13.27;;;;;;;15.91;57.10;101452.06;5023214;28;20054;-71
2021/09/27 01:32:16;;;;;;;22.65;16.55;;;;;;;15.86;57.29;101447.00;5021879;28;20108;-70
2021/09/27 01:34:45;;;;;;;23.65;17.23;;;;;;;15.83;57.52;101457.72;4996371;28;20037;-71
2021/09/27 01:37:32;;;;;;;21.98;16.17;;;;;;;15.83;57.54;101456.88;5007930;28;20030;-70
2021/09/27 01:40:01;;;;;;;25.67;17.98;;;;;;;15.81;57.70;101456.97;5020848;28;20515;-71
2021/09/27 01:42:43;;;;;;;31.58;19.98;;;;;;;15.75;57.78;101444.09;5004982;28;20176;-70
2021/09/27 01:45:35;;;;;;;29.75;20.23;;;;;;;15.88;57.37;101447.78;4981426;28;20126;-71
2021/09/27 01:48:11;;;;;;;26.63;19.30;;;;;;;15.87;57.09;101446.09;5005633;28;20038;-70
2021/09/27 01:51:12;;;;;;;26.92;18.05;;;;;;;15.81;56.93;101435.88;5005652;28;20038;-70
2021/09/27 01:53:50;;;;;;;24.17;17.15;;;;;;;15.74;57.01;101439.78;5006491;28;20062;-70
2021/09/27 01:56:24;;;;;;;22.58;17.30;;;;;;;15.69;57.35;101440.03;5007472;28;20091;-70
2021/09/27 01:59:13;;;;;;;27.50;20.75;;;;;;;15.49;57.71;101454.25;5004996;28;20464;-70
2021/09/27 02:02:04;;;;;;;27.10;18.23;;;;;;;15.63;57.37;101455.31;5000309;28;20050;-70
2021/09/27 02:05:00;;;;;;;29.77;19.90;;;;;;;15.51;57.30;101441.84;5003856;28;20132;-71
2021/09/27 02:07:29;;;;;;;24.90;17.45;;;;;;;15.55;57.39;101435.47;5004594;28;20034;-70
2021/09/27 02:10:07;;;;;;;24.27;18.45;;;;;;;15.48;56.94;101433.22;5006274;28;20115;-70
2021/09/27 02:12:40;;;;;;;27.02;17.73;;;;;;;15.42;57.17;101426.50;5003961;28;20038;-70
2021/09/27 02:15:19;;;;;;;25.83;18.45;;;;;;;15.39;57.12;101437.19;5006439;28;20034;-70
2021/09/27 02:17:56;;;;;;;27.60;16.85;;;;;;;15.30;57.04;101427.97;5004815;28;20519;-70
2021/09/27 02:20:31;;;;;;;25.40;17.98;;;;;;;15.22;57.31;101434.59;5000157;28;20044;-71
2021/09/27 02:23:09;;;;;;;24.08;18.33;;;;;;;15.16;57.30;101436.56;5006627;28;20112;-71
2021/09/27 02:25:38;;;;;;;23.50;17.20;;;;;;;15.15;57.25;101440.13;5004837;28;20073;-71
2021/09/27 02:28:17;;;;;;;28.40;17.30;;;;;;;15.07;57.35;101437.03;4995445;23;20068;-68
2021/09/27 02:30:57;;;;;;;26.33;18.27;;;;;;;15.06;57.47;101435.31;5006917;28;20053;-67
2021/09/27 02:33:33;;;;;;;32.53;21.00;;;;;;;14.93;58.19;101431.59;4988440;28;20037;-69
2021/09/27 02:36:12;;;;;;;26.65;18.63;;;;;;;15.13;57.50;101420.06;5008874;28;20022;-67
2021/09/27 02:38:52;;;;;;;27.15;17.88;;;;;;;15.11;57.25;101416.66;4983281;28;20034;-68
2021/09/27 02:41:34;;;;;;;29.90;20.58;;;;;;;15.06;57.29;101410.75;4983074;28;20270;-66
2021/09/27 02:43:59;;;;;;;31.92;19.40;;;;;;;15.03;57.38;101409.13;4984185;28;20057;-66
2021/09/27 02:46:25;;;;;;;28.05;19.42;;;;;;;15.02;57.50;101411.88;4997849;28;20050;-67
2021/09/27 02:48:56;;;;;;;28.95;18.27;;;;;;;14.99;57.35;101412.84;4998857;28;20484;-66
2021/09/27 02:51:23;;;;;;;34.10;21.27;;;;;;;14.95;57.36;101411.31;4980101;28;20039;-68
2021/09/27 02:53:52;;;;;;;30.60;20.20;;;;;;;14.94;57.24;101410.44;4978461;28;20066;-67
2021/09/27 02:56:47;;;;;;;32.13;20.60;;;;;;;14.98;57.39;101422.53;4980798;28;20113;-68
2021/09/27 02:59:24;;;;;;;;;;;;;;;14.93;57.43;101407.91;4989825;28;20117;-67
2021/09/27 03:02:04;;;;;;;28.02;17.77;;;;;;;14.89;57.55;101406.34;4983317;28;19960;-68
2021/09/27 03:04:53;;;;;;;28.35;18.58;;;;;;;14.94;57.25;101407.81;4999751;28;20046;-66
2021/09/27 03:07:21;;;;;;;32.50;19.30;;;;;;;14.90;57.16;101414.19;4977690;28;20046;-68
2021/09/27 03:10:20;;;;;;;30.85;19.70;;;;;;;14.86;57.21;101419.69;4991394;28;20038;-67
2021/09/27 03:12:51;;;;;;;26.50;17.58;;;;;;;14.83;57.50;101420.66;4997328;28;20031;-68
2021/09/27 03:15:35;;;;;;;30.77;20.17;;;;;;;14.84;57.36;101424.16;4983130;28;20529;-67
2021/09/27 03:18:05;;;;;;;30.92;19.42;;;;;;;14.88;57.24;101430.97;4981802;28;20050;-67
2021/09/27 03:20:52;;;;;;;33.63;20.35;;;;;;;14.89;57.44;101427.41;4981466;28;20045;-67
2021/09/27 03:23:49;;;;;;;34.22;21.30;;;;;;;14.86;57.51;101423.16;4999972;28;20072;-67
2021/09/27 03:26:33;;;;;;;29.08;19.52;;;;;;;14.80;57.82;101417.34;4984591;28;20034;-67
2021/09/27 03:29:17;;;;;;;28.65;20.13;;;;;;;14.79;57.74;101415.63;4982714;28;20535;-67
2021/09/27 03:31:54;;;;;;;30.52;19.88;;;;;;;14.79;57.64;101415.63;4982458;28;20089;-67
2021/09/27 03:34:33;;;;;;;28.83;19.20;;;;;;;14.77;57.75;101418.34;4980980;28;20038;-67
2021/09/27 03:37:38;;;;;;;24.00;17.38;;;;;;;14.83;57.61;101423.28;4979202;28;20499;-67
2021/09/27 03:40:44;;;;;;;29.67;18.50;;;;;;;14.73;57.50;101422.91;4987359;28;20408;-67
2021/09/27 03:43:24;;;;;;;27.08;17.90;;;;;;;14.73;57.51;101420.28;4981730;28;20271;-67
2021/09/27 03:46:09;;;;;;;26.45;19.17;;;;;;;14.75;57.80;101425.47;4981963;28;20034;-67
2021/09/27 03:48:46;;;;;;;29.10;18.35;;;;;;;14.71;57.92;101430.00;4978638;28;20046;-67
2021/09/27 03:51:28;;;;;;;29.23;19.02;;;;;;;14.79;57.84;101426.16;4995244;28;20399;-67
2021/09/27 03:53:57;;;;;;;31.83;18.27;;;;;;;14.74;58.13;101435.13;4979036;28;20056;-68
2021/09/27 03:56:34;;;;;;;29.00;18.52;;;;;;;14.81;58.12;101425.13;4995123;28;20043;-68
2021/09/27 03:59:11;;;;;;;27.27;17.77;;;;;;;14.84;58.14;101424.16;4982695;28;20070;-67
2021/09/27 04:01:59;;;;;;;32.33;19.67;;;;;;;;;;4982414;28;20042;-67
2021/09/27 04:04:38;;;;;;;29.27;17.67;;;;;;;14.80;58.03;101414.72;4992349;28;20063;-67
2021/09/27 04:07:33;;;;;;;29.52;19.63;;;;;;;14.75;58.11;101409.69;4983571;28;20042;-67
2021/09/27 04:10:45;;;;;;;27.30;17.10;;;;;;;14.81;57.73;101403.25;4980217;28;20933;-67
2021/09/27 04:13:23;;;;;;;23.55;16.80;;;;;;;14.75;57.63;101410.53;4969595;28;20191;-68
2021/09/27 04:15:54;;;;;;;30.83;18.92;;;;;;;14.70;57.62;101412.53;4979418;28;20173;-67
2021/09/27 04:18:42;;;;;;;24.98;16.67;;;;;;;14.70;57.46;101412.53;4979316;28;20039;-67
2021/09/27 04:21:15;;;;;;;26.85;17.55;;;;;;;14.65;57.41;101409.25;4995745;28;20058;-66
2021/09/27 04:24:04;;;;;;;25.63;16.50;;;;;;;14.63;57.47;101413.75;4982859;28;20038;-67
2021/09/27 04:27:07;;;;;;;26.08;17.58;;;;;;;14.59;57.83;101404.31;4983613;28;20558;-67
2021/09/27 04:29:43;;;;;;;24.25;16.60;;;;;;;14.55;57.53;101400.13;4982909;28;20129;-67
2021/09/27 04:32:43;;;;;;;24.27;16.08;;;;;;;14.54;57.36;101401.03;4962121;28;20034;-67
2021/09/27 04:35:30;;;;;;;26.90;17.27;;;;;;;14.52;57.47;101395.00;4984690;28;20476;-67
2021/09/27 04:37:55;;;;;;;21.58;15.40;;;;;;;14.52;57.81;101393.25;4984601;28;20492;-67
2021/09/27 04:40:35;;;;;;;25.00;16.60;;;;;;;14.51;57.67;101380.16;4987355;28;20049;-67
2021/09/27 04:43:15;;;;;;;30.77;18.70;;;;;;;14.48;57.57;101390.84;4989762;28;20101;-67
2021/09/27 04:46:04;;;;;;;35.75;19.40;;;;;;;14.39;57.67;101376.31;4988540;28;20046;-67
2021/09/27 04:48:42;;;;;;;30.27;16.83;;;;;;;14.36;57.75;101379.91;4997006;28;20038;-68
2021/09/27 04:51:19;;;;;;;25.90;16.70;;;;;;;14.35;57.90;101378.22;4987410;28;20484;-67
2021/09/27 04:53:50;;;;;;;27.77;16.95;;;;;;;14.39;57.40;101373.69;4986323;28;20627;-68
2021/09/27 04:56:36;;;;;;;23.33;14.55;;;;;;;14.40;57.10;101380.63;4976497;28;20110;-68
2021/09/27 04:59:13;;;;;;;24.95;15.55;;;;;;;14.30;57.39;101377.59;4981881;28;20097;-69
2021/09/27 05:01:58;;;;;;;25.10;16.38;;;;;;;14.27;57.49;101388.25;4983714;28;20043;-68
2021/09/27 05:04:58;;;;;;;21.90;14.18;;;;;;;14.26;57.62;101385.72;4994608;28;20523;-68
2021/09/27 05:07:42;;;;;;;25.77;16.38;;;;;;;14.30;57.96;101372.34;4969103;28;20050;-68
2021/09/27 05:10:19;;;;;;;20.52;13.55;;;;;;;14.33;57.64;101377.44;4977183;28;20022;-67
2021/09/27 05:12:48;;;;;;;21.02;14.50;;;;;;;14.31;57.86;101379.31;4976627;28;20085;-68
2021/09/27 05:15:22;;;;;;;25.50;17.17;;;;;;;14.33;57.78;101382.72;4981487;28;20026;-67
2021/09/27 05:18:09;;;;;;;27.80;15.68;;;;;;;14.33;57.51;101382.72;4995229;28;20093;-68
2021/09/27 05:20:53;;;;;;;28.08;15.80;;;;;;;14.34;57.70;101376.53;4999096;28;20540;-69
2021/09/27 05:23:34;;;;;;;22.50;15.73;;;;;;;14.33;57.10;101372.19;4983602;28;20618;-67
2021/09/27 05:26:26;;;;;;;25.45;15.25;;;;;;;14.32;57.25;101381.03;4984259;28;20062;-68
2021/09/27 05:29:27;;;;;;;23.70;15.85;;;;;;;14.26;57.54;101378.69;4984559;28;20049;-67
2021/09/27 05:32:01;;;;;;;22.63;15.18;;;;;;;14.31;57.77;101368.78;4982011;28;20668;-68
2021/09/27 05:34:32;;;;;;;26.60;16.40;;;;;;;14.31;57.59;101363.53;4987255;28;20038;-68
2021/09/27 05:37:14;;;;;;;24.42;16.10;;;;;;;14.38;57.79;101363.22;4983451;28;20042;-67
2021/09/27 05:39:56;;;;;;;26.27;15.87;;;;;;;14.40;57.48;101361.38;4982109;28;20411;-67
2021/09/27 05:42:25;;;;;;;24.60;16.45;;;;;;;14.42;57.85;101362.19;4996748;28;20070;-67
2021/09/27 05:44:58;;;;;;;30.35;17.30;;;;;;;14.51;57.47;101377.53;4984683;28;20127;-67
2021/09/27 05:47:46;;;;;;;27.38;16.08;;;;;;;14.53;57.30;101362.53;5000973;28;20395;-68
2021/09/27 05:50:31;;;;;;;22.40;15.32;;;;;;;14.57;57.50;101353.56;4963193;28;20140;-68
2021/09/27 05:53:20;;;;;;;27.73;16.67;;;;;;;14.53;57.45;101357.25;4996676;28;20042;-68
2021/09/27 05:55:54;;;;;;;29.08;16.50;;;;;;;14.61;57.33;101351.59;4996805;28;20046;-68
2021/09/27 05:58:32;;;;;;;25.10;16.05;;;;;;;14.71;57.66;101356.34;4984980;28;20086;-68
2021/09/27 06:01:23;;;;;;;34.70;17.08;;;;;;;14.80;57.32;101355.03;4983494;28;20649;-68
2021/09/27 06:03:48;;;;;;;22.50;15.17;;;;;;;14.91;57.15;101351.88;4975814;28;20057;-68
2021/09/27 06:06:26;;;;;;;22.83;14.98;;;;;;;15.07;57.20;101352.78;4969549;28;20277;-68
2021/09/27 06:09:12;;;;;;;25.65;16.00;;;;;;;15.06;56.48;101351.09;4977642;28;20065;-68
2021/09/27 06:11:50;;;;;;;28.70;16.33;;;;;;;15.13;56.44;101351.63;4976975;28;20077;-68
2021/09/27 06:14:17;;;;;;;32.13;17.30;;;;;;;15.29;56.71;101352.56;4980349;28;20027;-68
2021/09/27 06:17:19;;;;;;;25.95;15.90;;;;;;;15.32;56.20;101356.81;4978310;28;20026;-68
2021/09/27 06:19:51;;;;;;;28.17;15.93;;;;;;;15.93;55.61;101350.88;4990875;28;20668;-68
2021/09/27 06:22:41;;;;;;;23.80;15.60;;;;;;;16.95;53.55;101347.75;4982311;28;20034;-68
2021/09/27 06:25:56;;;;;;;25.00;16.17;;;;;;;18.27;51.29;101355.44;4979450;28;20035;-68
2021/09/27 06:28:38;;;;;;;27.70;13.80;;;;;;;18.86;49.31;101337.41;4936325;28;20035;-68
2021/09/27 06:31:19;;;;;;;26.67;14.00;;;;;;;19.28;46.07;101339.88;4956015;28;20459;-68
2021/09/27 06:34:03;;;;;;;22.27;13.25;;;;;;;19.83;45.74;101341.28;4978568;28;20049;-68
2021/09/27 06:36:32;;;;;;;16.95;12.57;;;;;;;20.37;44.46;101342.69;4958497;28;20057;-68
2021/09/27 06:39:01;;;;;;;19.48;12.45;;;;;;;21.28;42.12;101343.78;4975848;28;20481;-68
2021/09/27 06:41:30;;;;;;;15.00;12.07;;;;;;;21.93;40.74;101344.81;4975577;28;20038;-68
2021/09/27 06:43:55;;;;;;;17.05;12.00;;;;;;;22.22;40.10;101330.97;4964613;28;20082;-69
2021/09/27 06:46:21;;;;;;;14.32;10.95;;;;;;;22.96;37.01;101333.63;4977668;28;20493;-68
2021/09/27 06:48:48;;;;;;;13.52;10.27;;;;;;;23.21;36.90;101341.22;4975172;28;20034;-69
2021/09/27 06:51:15;;;;;;;15.57;11.23;;;;;;;23.34;37.14;101335.72;4992736;28;20068;-69
2021/09/27 06:53:40;;;;;;;16.45;10.30;;;;;;;24.03;36.14;101339.41;4996214;28;20368;-69
2021/09/27 06:56:06;;;;;;;12.25;10.27;;;;;;;24.20;35.31;101338.72;4978236;28;20038;-67
2021/09/27 06:58:32;;;;;;;18.83;10.57;;;;;;;24.12;34.02;101335.06;4982357;28;20162;-67
2021/09/27 07:00:58;;;;;;;18.52;11.32;;;;;;;23.90;34.64;101333.47;4959209;28;20113;-67
2021/09/27 07:03:24;;;;;;;13.85;9.43;;;;;;;23.72;35.88;101331.47;4978014;28;20122;-68
2021/09/27 07:05:50;;;;;;;17.83;10.73;;;;;;;23.42;34.64;101325.19;4980760;28;20049;-68
2021/09/27 07:08:18;;;;;;;13.73;10.25;;;;;;;23.56;35.32;101326.63;4980165;28;20030;-67
2021/09/27 07:10:45;;;;;;;19.73;11.70;;;;;;;23.90;34.87;101318.34;4980718;28;20105;-67
2021/09/27 07:13:12;;;;;;;14.32;9.57;;;;;;;24.44;34.41;101324.97;4983951;28;20100;-68
2021/09/27 07:15:38;;;;;;;13.55;10.05;;;;;;;24.32;33.76;101325.22;4984624;28;20070;-68
2021/09/27 07:18:03;;;;;;;15.40;10.32;;;;;;;24.31;34.28;101327.06;4975397;28;20045;-68
2021/09/27 07:20:29;;;;;;;18.40;11.25;;;;;;;25.24;32.47;101320.16;4983054;28;20048;-68
2021/09/27 07:22:56;;;;;;;13.10;9.70;;;;;;;25.87;32.92;101327.44;4977447;28;20126;-67
2021/09/27 07:25:23;;;;;;;15.40;10.02;;;;;;;26.48;30.66;101319.63;4977077;28;20030;-67
2021/09/27 07:27:49;;;;;;;13.73;9.75;;;;;;;26.64;29.75;101317.09;4981635;28;20492;-67
2021/09/27 07:30:15;;;;;;;19.67;12.32;;;;;;;25.94;31.25;101308.09;4976817;28;20114;-67
2021/09/27 07:32:42;;;;;;;15.48;10.80;;;;;;;25.80;31.83;101318.31;4977772;28;20381;-67
2021/09/27 07:35:11;;;;;;;15.88;10.90;;;;;;;25.42;31.80;101322.03;4980673;28;20357;-67
2021/09/27 07:37:38;;;;;;;15.82;10.13;;;;;;;25.03;33.49;101319.53;4979856;28;20571;-68
2021/09/27 07:40:07;;;;;;;15.10;10.32;;;;;;;24.21;35.37;101329.72;4975960;28;20034;-68
2021/09/27 07:42:33;;;;;;;13.60;9.77;;;;;;;25.93;32.16;101322.44;4974578;28;20042;-68
2021/09/27 07:44:58;;;;;;;14.48;9.35;;;;;;;25.93;31.29;101317.94;4974915;28;20089;-67
2021/09/27 07:47:24;;;;;;;15.10;10.27;;;;;;;26.26;32.03;101319.09;4981373;28;20405;-67
2021/09/27 07:49:49;;;;;;;12.77;10.25;;;;;;;26.58;30.93;101314.16;4979493;28;20149;-67
2021/09/27 07:52:15;;;;;;;13.57;8.55;;;;;;;26.72;30.33;101310.13;4980322;28;20058;-67
2021/09/27 07:54:40;;;;;;;13.90;9.50;;;;;;;27.90;29.64;101311.16;4990698;28;20269;-68
2021/09/27 07:57:06;;;;;;;11.63;8.32;;;;;;;27.29;30.22;101311.25;4977179;28;20061;-69
2021/09/27 07:59:32;;;;;;;12.45;9.60;;;;;;;27.61;28.72;101324.97;4973306;28;20068;-67
2021/09/27 08:01:57;;;;;;;14.88;8.13;;;;;;;27.28;30.64;101317.66;4994617;28;20039;-67
2021/09/27 08:04:23;;;;;;;13.60;9.27;;;;;;;27.28;29.39;101311.44;4975661;28;20045;-67
2021/09/27 08:06:49;;;;;;;11.55;9.13;;;;;;;26.68;29.93;101314.94;4976776;28;20025;-68
2021/09/27 08:09:14;;;;;;;13.70;9.57;;;;;;;26.55;30.58;101307.28;4980536;28;20066;-68
2021/09/27 08:11:41;;;;;;;12.13;9.57;;;;;;;25.50;31.72;101310.59;4977756;28;20045;-68
2021/09/27 08:14:07;;;;;;;13.25;10.10;;;;;;;25.39;32.46;101317.81;4984995;28;20034;-67
2021/09/27 08:16:33;;;;;;;13.70;9.38;;;;;;;25.63;32.09;101311.09;4977410;28;20038;-67
2021/09/27 08:18:58;;;;;;;12.48;8.90;;;;;;;25.34;33.43;101314.75;4994753;28;20034;-68
2021/09/27 08:21:24;;;;;;;15.55;10.57;;;;;;;26.14;32.47;101306.97;4980883;28;20034;-67
2021/09/27 08:23:50;;;;;;;12.35;9.52;;;;;;;26.86;30.80;101296.94;4984112;28;20395;-67
2021/09/27 08:26:17;;;;;;;14.23;9.95;;;;;;;25.53;32.49;101303.16;4961189;28;20858;-67
2021/09/27 08:28:43;;;;;;;12.98;9.45;;;;;;;25.35;32.81;101312.91;4980372;28;20452;-67
2021/09/27 08:31:17;;;;;;;13.05;9.00;;;;;;;25.40;32.24;101307.97;4985623;28;20096;-66
2021/09/27 08:33:43;;;;;;;12.70;9.68;;;;;;;24.51;33.40;101303.03;4979410;28;20117;-68
2021/09/27 08:36:12;;;;;;;11.88;9.32;;;;;;;22.90;37.08;101303.03;4993422;28;20122;-68
2021/09/27 08:38:38;;;;;;;13.73;9.63;;;;;;;23.65;36.27;101290.28;4981110;28;20038;-68
2021/09/27 08:41:17;;;;;;;14.27;10.27;;;;;;;22.78;37.69;101288.09;4979366;28;20031;-67
2021/09/27 08:44:04;;;;;;;13.77;10.77;;;;;;;22.53;38.78;101300.81;4980393;28;20042;-68
2021/09/27 08:46:34;;;;;;;15.82;9.82;;;;;;;23.06;37.31;101296.38;4991157;28;20847;-68
2021/09/27 08:49:18;;;;;;;14.27;9.90;;;;;;;22.76;37.28;101292.72;4973658;28;20421;-68
2021/09/27 08:51:45;;;;;;;11.98;9.27;;;;;;;23.09;37.21;101302.28;4977237;28;20037;-69
2021/09/27 08:54:18;;;;;;;19.23;11.45;;;;;;;22.88;38.23;101298.84;4982018;28;20037;-69
2021/09/27 08:57:06;;;;;;;13.98;8.75;;;;;;;22.75;38.92;101294.53;4980396;28;20247;-69
2021/09/27 08:59:55;;;;;;;15.45;9.50;;;;;;;23.26;37.38;101297.31;4973537;28;20035;-68
2021/09/27 09:02:42;;;;;;;12.75;9.02;;;;;;;22.79;37.80;101295.13;4981177;28;20038;-69
2021/09/27 09:05:14;;;;;;;17.65;10.38;;;;;;;22.54;38.73;101293.69;4993692;28;20054;-68
2021/09/27 09:08:00;;;;;;;14.70;9.52;;;;;;;22.77;38.55;101289.09;4977053;28;20062;-68
2021/09/27 09:10:42;;;;;;;14.63;9.18;;;;;;;22.79;37.90;101279.16;4982456;28;20532;-68
2021/09/27 09:13:12;;;;;;;13.82;9.25;;;;;;;22.61;39.00;101283.34;4982998;28;20073;-67
2021/09/27 09:15:40;;;;;;;15.57;10.40;;;;;;;21.55;41.00;101285.75;5003648;23;20042;-66
2021/09/27 09:18:11;;;;;;;13.73;8.95;;;;;;;22.74;40.37;101286.66;5015461;28;20514;-66
2021/09/27 09:20:49;;;;;;;14.55;9.68;;;;;;;21.88;40.77;101277.84;5013013;28;20089;-69
2021/09/27 09:23:31;;;;;;;13.93;10.15;;;;;;;22.25;39.37;101280.13;5016958;28;20157;-67
2021/09/27 09:26:03;;;;;;;14.45;9.07;;;;;;;21.93;40.70;101287.13;5012361;28;20044;-67
2021/09/27 09:28:29;;;;;;;14.52;9.43;;;;;;;22.56;39.80;101286.38;5015848;28;20030;-70
2021/09/27 09:31:12;;;;;;;16.33;9.57;;;;;;;22.93;38.81;101281.44;5013550;28;20048;-68
2021/09/27 09:33:43;;;;;;;13.30;10.63;;;;;;;23.09;39.65;101277.44;5012216;28;20046;-68
2021/09/27 09:36:15;;;;;;;12.93;9.57;;;;;;;23.67;37.20;101280.31;5014193;28;20108;-66
2021/09/27 09:38:43;;;;;;;12.43;8.45;;;;;;;24.29;36.17;101280.94;5015776;28;20052;-66
2021/09/27 09:41:10;;;;;;;11.55;8.80;;;;;;;24.27;34.48;101266.06;5014413;28;20037;-66
2021/09/27 09:43:39;;;;;;;11.38;9.73;;;;;;;23.20;37.40;101264.84;5014367;28;20144;-66
2021/09/27 09:46:20;;;;;;;11.52;9.35;;;;;;;22.22;39.45;101265.28;5015499;28;20018;-67
2021/09/27 09:49:10;;;;;;;14.15;9.65;;;;;;;21.98;39.67;101265.47;5016785;28;20159;-68
2021/09/27 09:51:40;;;;;;;12.05;8.82;;;;;;;21.29;40.82;101268.38;5014826;28;20124;-67
2021/09/27 09:54:24;;;;;;;12.85;9.75;;;;;;;20.57;42.84;101266.00;5019639;28;20029;-68
2021/09/27 09:57:04;;;;;;;12.38;8.65;;;;;;;21.20;41.41;101254.03;5015026;28;20033;-66
2021/09/27 09:59:37;;;;;;;11.82;8.05;;;;;;;21.84;39.80;101255.94;5028223;28;20034;-69
2021/09/27 10:02:08;;;;;;;11.20;8.63;;;;;;;21.47;39.96;101247.47;5015903;28;20105;-67
2021/09/27 10:04:41;;;;;;;12.70;8.67;;;;;;;21.23;41.22;101245.78;5011976;28;20047;-66
2021/09/27 10:07:15;;;;;;;13.73;10.15;;;;;;;21.82;40.40;101249.91;5011938;28;20638;-65
2021/09/27 10:10:06;;;;;;;13.07;8.90;;;;;;;21.55;41.05;101248.53;5010938;28;20030;-66
2021/09/27 10:12:52;;;;;;;12.27;9.13;;;;;;;21.75;39.88;101248.72;5015262;28;20034;-66
2021/09/27 10:15:27;;;;;;;13.40;8.68;;;;;;;21.98;39.55;101253.00;5015777;28;20409;-67
2021/09/27 10:18:25;;;;;;;9.90;8.75;;;;;;;22.69;39.73;101243.59;5014970;28;20108;-67
2021/09/27 10:21:07;;;;;;;10.02;7.85;;;;;;;22.67;38.41;101242.84;5015564;28;20034;-67
2021/09/27 10:23:45;;;;;;;10.57;8.15;;;;;;;22.24;39.45;101243.84;5019092;28;20052;-67
2021/09/27 10:26:19;;;;;;;11.88;7.80;;;;;;;22.22;39.58;101243.13;5016582;28;20042;-70
2021/09/27 10:28:48;;;;;;;9.18;7.65;;;;;;;21.91;40.14;101243.00;5014776;28;20045;-69
2021/09/27 10:31:14;;;;;;;11.82;7.90;;;;;;;21.63;40.97;101241.78;5012028;28;20152;-67
2021/09/27 10:33:48;;;;;;;10.13;8.32;;;;;;;21.56;39.39;101247.59;5031035;28;20034;-67
2021/09/27 10:36:39;;;;;;;12.93;7.47;;;;;;;21.90;40.05;101250.13;5014208;28;20236;-67
2021/09/27 10:39:09;;;;;;;10.38;7.10;;;;;;;22.23;38.95;101250.16;5014531;28;20053;-69
2021/09/27 10:41:48;;;;;;;9.45;7.15;;;;;;;22.07;39.41;101246.09;5011344;28;20104;-66
2021/09/27 10:44:16;;;;;;;11.68;6.90;;;;;;;22.07;39.45;101246.09;5014209;28;20041;-68
2021/09/27 10:46:46;;;;;;;12.35;6.72;;;;;;;22.06;39.03;101232.91;5009742;28;20083;-69
2021/09/27 10:49:46;;;;;;;8.98;7.13;;;;;;;21.97;39.63;101229.19;5012572;28;20044;-68
2021/09/27 10:52:21;;;;;;;16.77;7.63;;;;;;;22.66;39.42;101230.53;5016964;28;20030;-70
2021/09/27 10:55:09;;;;;;;9.63;6.53;;;;;;;22.67;39.01;101232.19;5012659;28;20061;-66
2021/09/27 10:58:11;;;;;;;11.85;7.25;;;;;;;22.83;38.06;101231.75;5019170;28;20398;-67
2021/09/27 11:00:45;;;;;;;13.25;8.45;;;;;;;22.08;39.27;101222.97;4945599;28;20039;-67
2021/09/27 11:03:15;;;;;;;12.05;7.65;;;;;;;23.71;37.55;101228.38;5004601;28;20049;-67
2021/09/27 11:06:18;;;;;;;12.38;8.27;;;;;;;23.15;36.71;101210.28;5011281;28;20139;-67
2021/09/27 11:09:00;;;;;;;10.48;7.88;;;;;;;22.96;37.67;101211.91;5010431;28;20029;-67
2021/09/27 11:11:28;;;;;;;9.30;6.07;;;;;;;23.61;37.29;101216.81;5017352;28;20089;-67
2021/09/27 11:13:59;;;;;;;10.43;6.43;;;;;;;23.35;36.98;101212.03;5014853;28;20792;-66
2021/09/27 11:16:34;;;;;;;6.88;6.07;;;;;;;23.15;37.40;101219.09;5014811;28;20026;-69
2021/09/27 11:19:34;;;;;;;11.07;7.25;;;;;;;23.31;37.94;101207.09;5012639;28;20108;-68
2021/09/27 11:22:18;;;;;;;8.32;6.60;;;;;;;23.42;37.08;101212.31;5013917;28;20055;-68
2021/09/27 11:24:43;;;;;;;8.60;6.28;;;;;;;22.57;37.68;101206.34;5014177;28;20475;-65
2021/09/27 11:27:29;;;;;;;9.52;6.32;;;;;;;22.54;37.82;101201.31;5014662;28;20119;-70
2021/09/27 11:30:20;;;;;;;11.43;6.30;;;;;;;22.14;38.39;101196.72;5013302;28;20033;-67
2021/09/27 11:32:53;;;;;;;7.20;5.50;;;;;;;22.45;37.94;101193.25;5013905;28;20114;-67
2021/09/27 11:35:37;;;;;;;7.15;6.35;;;;;;;22.79;36.30;101205.38;5018148;28;20132;-69
2021/09/27 11:38:15;;;;;;;6.55;4.88;;;;;;;22.86;37.12;101199.50;5013920;28;20045;-69
2021/09/27 11:40:42;;;;;;;6.50;5.47;;;;;;;22.73;37.13;101189.06;5018785;28;20495;-72
2021/09/27 11:43:24;;;;;;;7.88;5.88;;;;;;;23.23;36.46;101191.78;5029336;28;20030;-68
2021/09/27 11:46:14;;;;;;;7.70;4.78;;;;;;;23.55;36.85;101185.38;5015631;28;20029;-71
2021/09/27 11:48:47;;;;;;;7.13;5.85;;;;;;;22.80;37.15;101195.53;5014399;28;20046;-68
2021/09/27 11:51:43;;;;;;;8.48;5.80;;;;;;;22.98;36.91;101198.41;5018739;28;20030;-66
2021/09/27 11:54:32;;;;;;;7.97;5.80;;;;;;;23.26;36.96;101202.16;5013192;28;20045;-66
2021/09/27 11:57:19;;;;;;;9.55;5.43;;;;;;;23.65;35.50;101210.22;5018116;28;20052;-70
2021/09/27 11:59:53;;;;;;;6.53;5.72;;;;;;;23.58;34.98;101209.94;5023389;28;20053;-68